createdAt,value
2024-02-19T00:00:17.132Z,11.23
2024-02-19T00:02:45.775Z,9.32
2024-02-19T00:05:14.175Z,9.88
2024-02-19T00:07:42.790Z,9.77
2024-02-19T00:10:12.690Z,8.45
2024-02-19T00:12:41.090Z,8.65
2024-02-19T00:15:10.531Z,8.88
2024-02-19T00:17:39.145Z,9.82
2024-02-19T00:20:09.457Z,9.13
2024-02-19T00:22:37.836Z,8.63
2024-02-19T00:25:06.932Z,9.35
2024-02-19T00:27:36.716Z,9.60
2024-02-19T00:30:06.477Z,8.07
2024-02-19T00:32:34.979Z,8.02
2024-02-19T00:35:03.456Z,7.82
2024-02-19T00:37:31.793Z,9.25
2024-02-19T00:40:00.280Z,8.18
2024-02-19T00:42:29.198Z,9.18
2024-02-19T00:44:59.282Z,8.25
2024-02-19T00:47:27.690Z,8.95
2024-02-19T00:49:56.876Z,8.45
2024-02-19T00:52:25.292Z,8.88
2024-02-19T00:54:53.655Z,8.85
2024-02-19T00:57:22.000Z,8.15
2024-02-19T00:59:50.283Z,7.93
2024-02-19T01:02:20.639Z,8.00
2024-02-19T01:04:50.479Z,8.27
2024-02-19T01:07:18.982Z,7.63
2024-02-19T01:09:47.339Z,8.35
2024-02-19T01:12:15.857Z,8.38
2024-02-19T01:14:44.674Z,7.97
2024-02-19T01:17:12.992Z,8.05
2024-02-19T01:19:42.812Z,7.93
2024-02-19T01:22:11.448Z,8.57
2024-02-19T01:24:40.313Z,8.13
2024-02-19T01:27:08.727Z,8.73
2024-02-19T01:29:37.093Z,7.03
2024-02-19T01:32:06.426Z,8.65
2024-02-19T01:34:34.885Z,8.63
2024-02-19T01:37:06.080Z,7.00
2024-02-19T01:39:34.784Z,9.07
2024-02-19T01:42:04.676Z,7.70
2024-02-19T01:44:33.173Z,8.20
2024-02-19T01:47:01.648Z,6.75
2024-02-19T01:49:30.653Z,8.15
2024-02-19T01:52:00.338Z,6.95
2024-02-19T01:54:30.120Z,8.13
2024-02-19T01:56:58.439Z,8.23
2024-02-19T01:59:28.599Z,6.47
2024-02-19T02:01:57.803Z,7.07
2024-02-19T02:04:28.009Z,8.27
2024-02-19T02:06:56.990Z,7.18
2024-02-19T02:09:25.630Z,7.22
2024-02-19T02:11:55.383Z,7.35
2024-02-19T02:14:23.826Z,6.83
2024-02-19T02:16:52.164Z,7.35
2024-02-19T02:19:20.607Z,7.68
2024-02-19T02:21:49.955Z,7.80
2024-02-19T02:24:19.775Z,7.50
2024-02-19T02:26:49.450Z,7.60
2024-02-19T02:29:17.783Z,6.50
2024-02-19T02:31:46.112Z,7.10
2024-02-19T02:34:14.685Z,7.15
2024-02-19T02:36:43.295Z,7.38
2024-02-19T02:39:11.741Z,6.60
2024-02-19T02:41:40.160Z,8.07
2024-02-19T02:44:10.048Z,6.88
2024-02-19T02:46:38.315Z,7.55
2024-02-19T02:49:06.804Z,7.05
2024-02-19T02:51:35.433Z,6.97
2024-02-19T02:54:03.831Z,7.45
2024-02-19T02:56:32.139Z,6.65
2024-02-19T02:59:00.493Z,7.00
2024-02-19T03:01:31.777Z,6.82
2024-02-19T03:04:00.437Z,6.47
2024-02-19T03:06:28.923Z,7.50
2024-02-19T03:08:57.372Z,7.40
2024-02-19T03:11:25.834Z,7.10
2024-02-19T03:13:54.370Z,6.55
2024-02-19T03:16:23.029Z,7.32
2024-02-19T03:18:54.846Z,6.70
2024-02-19T03:21:23.594Z,7.13
2024-02-19T03:23:53.444Z,6.97
2024-02-19T03:26:37.027Z,6.20
2024-02-19T03:29:15.040Z,6.55
2024-02-19T03:31:45.037Z,7.40
2024-02-19T03:34:14.969Z,7.60
2024-02-19T03:36:51.036Z,6.90
2024-02-19T03:39:19.913Z,6.47
2024-02-19T03:41:49.024Z,7.35
2024-02-19T03:44:17.810Z,6.93
2024-02-19T03:46:47.063Z,6.80
2024-02-19T03:49:17.077Z,7.10
2024-02-19T03:51:45.903Z,6.85
2024-02-19T03:54:14.638Z,7.10
2024-02-19T03:56:43.250Z,6.70
2024-02-19T03:59:12.562Z,7.32
2024-02-19T04:01:41.033Z,6.65
2024-02-19T04:04:09.545Z,7.55
2024-02-19T04:06:39.408Z,7.20
2024-02-19T04:09:07.819Z,7.25
2024-02-19T04:11:36.399Z,6.78
2024-02-19T04:14:04.801Z,6.50
2024-02-19T04:16:33.158Z,6.88
2024-02-19T04:19:01.616Z,6.47
2024-02-19T04:21:30.068Z,7.38
2024-02-19T04:23:59.789Z,6.18
2024-02-19T04:26:28.144Z,7.47
2024-02-19T04:28:57.468Z,6.65
2024-02-19T04:31:25.882Z,7.13
2024-02-19T04:33:54.369Z,6.80
2024-02-19T04:36:22.797Z,6.82
2024-02-19T04:38:51.244Z,7.45
2024-02-19T04:41:21.102Z,6.72
2024-02-19T04:43:49.436Z,6.30
2024-02-19T04:46:18.059Z,6.72
2024-02-19T04:48:46.837Z,7.00
2024-02-19T04:51:15.345Z,6.95
2024-02-19T04:53:43.933Z,6.90
2024-02-19T04:56:16.804Z,7.30
2024-02-19T04:58:46.697Z,7.45
2024-02-19T05:01:15.185Z,7.13
2024-02-19T05:03:43.704Z,6.65
2024-02-19T05:06:12.106Z,7.10
2024-02-19T05:08:40.533Z,6.47
2024-02-19T05:11:09.587Z,6.53
2024-02-19T05:13:37.957Z,6.28
2024-02-19T05:16:08.870Z,6.82
2024-02-19T05:18:37.585Z,6.53
2024-02-19T05:21:07.402Z,6.97
2024-02-19T05:23:36.172Z,7.17
2024-02-19T05:26:07.626Z,7.07
2024-02-19T05:28:38.006Z,6.65
2024-02-19T05:31:07.931Z,6.70
2024-02-19T05:33:36.334Z,6.55
2024-02-19T05:36:04.899Z,6.70
2024-02-19T05:38:35.468Z,7.03
2024-02-19T05:41:05.454Z,6.72
2024-02-19T05:43:33.791Z,8.00
2024-02-19T05:46:02.324Z,7.53
2024-02-19T05:48:32.391Z,8.15
2024-02-19T05:51:04.501Z,7.90
2024-02-19T05:53:33.583Z,7.30
2024-02-19T05:56:02.123Z,7.22
2024-02-19T05:58:30.588Z,8.07
2024-02-19T06:00:59.220Z,8.75
2024-02-19T06:03:27.883Z,7.55
2024-02-19T06:05:57.656Z,7.65
2024-02-19T06:08:26.030Z,7.32
2024-02-19T06:10:55.529Z,7.28
2024-02-19T06:13:23.975Z,7.90
2024-02-19T06:15:52.425Z,8.10
2024-02-19T06:18:20.915Z,7.25
2024-02-19T06:20:49.933Z,8.35
2024-02-19T06:23:19.735Z,8.82
2024-02-19T06:25:48.123Z,8.05
2024-02-19T06:28:16.683Z,8.65
2024-02-19T06:30:45.474Z,8.80
2024-02-19T06:33:14.068Z,8.40
2024-02-19T06:35:42.566Z,9.48
2024-02-19T06:38:11.023Z,8.90
2024-02-19T06:40:40.775Z,8.20
2024-02-19T06:43:09.236Z,9.33
2024-02-19T06:45:37.701Z,8.95
2024-02-19T06:48:07.729Z,8.38
2024-02-19T06:50:36.199Z,9.50
2024-02-19T06:53:07.170Z,8.90
2024-02-19T06:55:35.501Z,8.95
2024-02-19T06:58:05.630Z,8.77
2024-02-19T07:00:34.187Z,8.90
2024-02-19T07:03:02.613Z,8.15
2024-02-19T07:05:31.146Z,8.35
2024-02-19T07:07:59.569Z,8.05
2024-02-19T07:10:28.053Z,8.13
2024-02-19T07:12:56.526Z,7.90
2024-02-19T07:15:26.236Z,8.63
2024-02-19T07:17:54.653Z,8.03
2024-02-19T07:20:22.987Z,8.32
2024-02-19T07:22:51.419Z,8.15
2024-02-19T07:25:21.964Z,8.55
2024-02-19T07:27:51.173Z,8.10
2024-02-19T07:30:20.110Z,7.65
2024-02-19T07:32:49.858Z,7.90
2024-02-19T07:35:18.228Z,8.60
2024-02-19T07:37:46.537Z,7.97
2024-02-19T07:40:15.110Z,7.43
2024-02-19T07:42:43.859Z,8.02
2024-02-19T07:45:12.477Z,7.50
2024-02-19T07:47:40.965Z,8.00
2024-02-19T07:50:11.653Z,7.75
2024-02-19T07:55:09.357Z,6.85
2024-02-19T07:57:37.783Z,7.22
2024-02-19T08:00:10.472Z,7.25
2024-02-19T08:02:38.858Z,7.35
2024-02-19T08:05:08.371Z,6.78
2024-02-19T08:07:38.569Z,6.87
2024-02-19T08:10:08.305Z,6.68
2024-02-19T08:12:40.371Z,7.23
2024-02-19T08:15:11.831Z,6.82
2024-02-19T08:17:40.249Z,6.55
2024-02-19T08:20:11.048Z,6.57
2024-02-19T08:25:13.605Z,6.47
2024-02-19T08:27:41.975Z,7.30
2024-02-19T08:30:11.171Z,6.50
2024-02-19T08:32:39.564Z,6.05
2024-02-19T08:35:08.384Z,6.93
2024-02-19T08:37:37.002Z,6.47
2024-02-19T08:40:09.185Z,7.18
2024-02-19T08:42:38.288Z,7.13
2024-02-19T08:45:09.297Z,7.55
2024-02-19T08:47:38.273Z,6.65
2024-02-19T08:50:08.097Z,6.90
2024-02-19T08:52:36.571Z,7.30
2024-02-19T08:55:07.030Z,7.43
2024-02-19T08:57:35.657Z,7.90
2024-02-19T09:00:05.689Z,7.93
2024-02-19T09:02:34.165Z,8.18
2024-02-19T09:05:02.595Z,8.05
2024-02-19T09:07:31.122Z,7.55
2024-02-19T09:09:59.633Z,7.90
2024-02-19T09:12:29.332Z,7.63
2024-02-19T09:14:59.476Z,7.80
2024-02-19T09:17:28.174Z,7.38
2024-02-19T09:19:57.135Z,7.55
2024-02-19T09:22:25.716Z,7.10
2024-02-19T09:24:54.136Z,7.85
2024-02-19T09:27:22.572Z,8.52
2024-02-19T09:29:52.303Z,7.68
2024-02-19T09:32:20.748Z,7.30
2024-02-19T09:34:49.228Z,6.88
2024-02-19T09:37:17.648Z,7.40
2024-02-19T09:39:51.041Z,7.32
2024-02-19T09:42:19.642Z,7.45
2024-02-19T09:44:48.051Z,7.18
2024-02-19T09:47:20.805Z,6.85
2024-02-19T09:49:49.963Z,6.65
2024-02-19T09:52:26.898Z,6.57
2024-02-19T09:54:58.002Z,7.95
2024-02-19T09:57:29.470Z,7.32
2024-02-19T09:59:59.718Z,7.10
2024-02-19T10:02:30.214Z,7.82
2024-02-19T10:05:00.702Z,7.00
2024-02-19T10:09:58.659Z,6.82
2024-02-19T10:12:27.021Z,6.80
2024-02-19T10:14:55.379Z,7.20
2024-02-19T10:17:24.349Z,6.20
2024-02-19T10:20:03.216Z,7.32
2024-02-19T10:22:31.613Z,6.75
2024-02-19T10:25:01.809Z,6.00
2024-02-19T10:27:32.240Z,6.18
2024-02-19T10:30:01.875Z,6.10
2024-02-19T10:32:30.677Z,5.90
2024-02-19T10:34:59.235Z,6.32
2024-02-19T10:37:28.991Z,7.03
2024-02-19T10:39:57.461Z,6.83
2024-02-19T10:42:26.045Z,6.90
2024-02-19T10:44:55.208Z,7.03
2024-02-19T10:47:25.007Z,6.63
2024-02-19T10:50:00.508Z,7.17
2024-02-19T10:52:32.765Z,7.95
2024-02-19T10:55:10.661Z,7.53
2024-02-19T10:57:51.506Z,7.28
2024-02-19T11:00:26.239Z,7.40
2024-02-19T11:03:06.098Z,7.97
2024-02-19T11:05:39.289Z,7.30
2024-02-19T11:08:21.102Z,7.65
2024-02-19T11:10:50.964Z,8.10
2024-02-19T11:13:22.122Z,8.57
2024-02-19T11:15:50.809Z,8.48
2024-02-19T11:18:20.716Z,8.68
2024-02-19T11:20:50.870Z,8.25
2024-02-19T11:23:21.794Z,9.70
2024-02-19T11:25:50.476Z,8.23
2024-02-19T11:28:18.956Z,10.23
2024-02-19T11:30:48.157Z,10.27
2024-02-19T11:33:16.762Z,9.93
2024-02-19T11:35:45.889Z,9.02
2024-02-19T11:38:14.326Z,9.30
2024-02-19T11:40:44.120Z,9.82
2024-02-19T11:43:12.782Z,10.57
2024-02-19T11:45:41.472Z,9.45
2024-02-19T11:48:10.387Z,8.82
2024-02-19T11:50:40.581Z,9.18
2024-02-19T11:53:10.391Z,9.52
2024-02-19T11:55:40.176Z,8.70
2024-02-19T11:58:11.538Z,9.60
2024-02-19T12:00:40.166Z,9.00
2024-02-19T12:03:09.122Z,9.70
2024-02-19T12:05:38.136Z,9.25
2024-02-19T12:08:07.338Z,8.25
2024-02-19T12:10:36.501Z,8.57
2024-02-19T12:13:05.304Z,9.20
2024-02-19T12:15:35.116Z,9.02
2024-02-19T12:18:03.802Z,10.23
2024-02-19T12:20:32.771Z,8.95
2024-02-19T12:23:01.384Z,9.90
2024-02-19T12:25:29.785Z,9.27
2024-02-19T12:27:58.168Z,9.15
2024-02-19T12:30:26.639Z,9.75
2024-02-19T12:32:56.949Z,10.18
2024-02-19T12:35:25.534Z,11.32
2024-02-19T12:37:54.086Z,9.65
2024-02-19T12:40:22.558Z,9.70
2024-02-19T12:42:51.319Z,10.27
2024-02-19T12:45:21.133Z,9.35
2024-02-19T12:47:49.615Z,8.98
2024-02-19T12:50:20.285Z,9.48
2024-02-19T12:55:19.596Z,9.45
2024-02-19T13:00:17.433Z,9.68
2024-02-19T13:02:46.347Z,8.88
2024-02-19T13:05:15.057Z,8.88
2024-02-19T13:07:48.835Z,9.65
2024-02-19T13:10:17.351Z,9.75
2024-02-19T13:12:46.129Z,8.90
2024-02-19T13:15:15.935Z,9.23
2024-02-19T13:17:46.539Z,9.30
2024-02-19T13:20:15.982Z,10.15
2024-02-19T13:22:46.371Z,8.50
2024-02-19T13:25:15.856Z,9.03
2024-02-19T13:27:45.427Z,8.93
2024-02-19T13:30:15.396Z,9.23
2024-02-19T13:35:33.731Z,8.60
2024-02-19T13:38:04.664Z,8.45
2024-02-19T13:40:33.431Z,8.38
2024-02-19T13:43:02.741Z,8.57
2024-02-19T13:45:58.793Z,8.00
2024-02-19T13:48:28.331Z,9.20
2024-02-19T13:50:58.169Z,7.88
2024-02-19T13:53:29.255Z,7.70
2024-02-19T13:55:59.068Z,8.35
2024-02-19T13:58:29.625Z,7.80
2024-02-19T14:00:59.198Z,8.25
2024-02-19T14:03:27.974Z,8.33
2024-02-19T14:05:56.383Z,8.02
2024-02-19T14:08:25.260Z,7.80
2024-02-19T14:10:56.673Z,8.23
2024-02-19T14:13:25.443Z,8.15
2024-02-19T14:15:53.993Z,8.05
2024-02-19T14:18:22.492Z,7.85
2024-02-19T14:20:50.949Z,7.85
2024-02-19T14:23:19.404Z,7.68
2024-02-19T14:25:50.659Z,8.88
2024-02-19T14:28:22.267Z,8.20
2024-02-19T14:30:50.869Z,8.65
2024-02-19T14:33:19.580Z,9.35
2024-02-19T14:35:48.493Z,8.90
2024-02-19T14:38:16.882Z,8.70
2024-02-19T14:40:45.653Z,9.15
2024-02-19T14:43:14.022Z,8.73
2024-02-19T14:45:43.911Z,8.40
2024-02-19T14:48:12.412Z,8.55
2024-02-19T14:50:41.688Z,8.90
2024-02-19T14:53:10.278Z,8.50
2024-02-19T14:55:38.639Z,8.50
2024-02-19T14:58:07.745Z,8.88
2024-02-19T15:00:37.268Z,8.45
2024-02-19T15:03:11.198Z,9.48
2024-02-19T15:05:40.654Z,9.38
2024-02-19T15:08:11.174Z,9.30
2024-02-19T15:10:39.597Z,8.57
2024-02-19T15:13:08.069Z,8.23
2024-02-19T15:15:36.503Z,8.18
2024-02-19T15:18:07.086Z,8.00
2024-02-19T15:23:06.285Z,8.48
2024-02-19T15:25:35.323Z,9.07
2024-02-19T15:28:04.255Z,8.80
2024-02-19T15:30:32.583Z,8.60
2024-02-19T15:33:01.073Z,8.48
2024-02-19T15:35:31.019Z,7.97
2024-02-19T15:38:00.232Z,8.98
2024-02-19T15:40:28.612Z,7.95
2024-02-19T15:42:57.112Z,8.15
2024-02-19T15:45:25.589Z,8.98
2024-02-19T15:47:53.937Z,8.63
2024-02-19T15:50:22.756Z,8.70
2024-02-19T15:52:58.870Z,9.15
2024-02-19T15:55:33.764Z,8.60
2024-02-19T15:58:02.259Z,8.48
2024-02-19T16:00:33.418Z,8.27
2024-02-19T16:03:01.829Z,8.38
2024-02-19T16:05:30.185Z,9.38
2024-02-19T16:08:00.037Z,10.38
2024-02-19T16:10:29.756Z,9.05
2024-02-19T16:12:58.447Z,10.90
2024-02-19T16:15:26.804Z,11.20
2024-02-19T16:17:55.228Z,10.13
2024-02-19T16:20:23.605Z,9.65
2024-02-19T16:22:54.884Z,9.43
2024-02-19T16:25:24.973Z,9.35
2024-02-19T16:27:54.399Z,9.25
2024-02-19T16:30:23.463Z,9.02
2024-02-19T16:32:51.925Z,8.65
2024-02-19T16:35:20.569Z,9.40
2024-02-19T16:37:49.195Z,8.82
2024-02-19T16:40:17.637Z,8.98
2024-02-19T16:42:47.408Z,9.00
2024-02-19T16:45:15.881Z,9.27
2024-02-19T16:47:44.250Z,8.85
2024-02-19T16:50:12.760Z,9.70
2024-02-19T16:52:41.307Z,8.82
2024-02-19T16:55:10.650Z,8.52
2024-02-19T16:57:39.065Z,8.80
2024-02-19T17:00:10.891Z,9.80
2024-02-19T17:02:39.569Z,8.95
2024-02-19T17:05:09.352Z,9.60
2024-02-19T17:07:38.166Z,10.05
2024-02-19T17:10:08.469Z,8.95
2024-02-19T17:12:36.842Z,9.57
2024-02-19T17:15:05.714Z,9.40
2024-02-19T17:17:35.480Z,9.90
2024-02-19T17:20:04.696Z,9.07
2024-02-19T17:22:33.189Z,8.65
2024-02-19T17:25:01.662Z,9.68
2024-02-19T17:27:30.206Z,8.77
2024-02-19T17:29:58.540Z,9.10
2024-02-19T17:32:26.998Z,9.40
2024-02-19T17:34:56.726Z,8.68
2024-02-19T17:37:26.855Z,9.70
2024-02-19T17:39:55.843Z,9.82
2024-02-19T17:42:25.371Z,9.05
2024-02-19T17:44:53.777Z,9.00
2024-02-19T17:47:22.744Z,9.95
2024-02-19T17:49:51.133Z,10.00
2024-02-19T17:52:20.920Z,9.00
2024-02-19T17:54:49.309Z,9.68
2024-02-19T17:57:17.694Z,10.02
2024-02-19T17:59:46.162Z,9.70
2024-02-19T18:02:14.880Z,9.40
2024-02-19T18:04:47.449Z,9.68
2024-02-19T18:07:15.828Z,9.60
2024-02-19T18:09:45.746Z,10.70
2024-02-19T18:12:14.134Z,9.70
2024-02-19T18:14:42.712Z,9.88
2024-02-19T18:17:11.205Z,9.43
2024-02-19T18:19:40.895Z,9.75
2024-02-19T18:22:10.994Z,10.13
2024-02-19T18:24:40.048Z,9.93
2024-02-19T18:27:10.577Z,10.00
2024-02-19T18:29:39.373Z,9.95
2024-02-19T18:32:08.792Z,9.90
2024-02-19T18:34:37.212Z,9.80
2024-02-19T18:37:06.306Z,9.30
2024-02-19T18:39:35.786Z,9.40
2024-02-19T18:42:05.659Z,10.15
2024-02-19T18:44:35.349Z,10.10
2024-02-19T18:47:04.451Z,9.63
2024-02-19T18:49:34.913Z,9.60
2024-02-19T18:52:03.487Z,9.32
2024-02-19T18:54:32.857Z,10.07
2024-02-19T18:57:04.691Z,9.50
2024-02-19T18:59:37.621Z,8.93
2024-02-19T19:02:06.575Z,10.45
2024-02-19T19:04:35.407Z,8.88
2024-02-19T19:07:04.051Z,10.73
2024-02-19T19:09:40.315Z,9.63
2024-02-19T19:12:10.420Z,9.73
2024-02-19T19:14:41.568Z,10.13
2024-02-19T19:17:10.166Z,8.80
2024-02-19T19:19:39.678Z,10.73
2024-02-19T19:22:08.612Z,9.38
2024-02-19T19:24:36.998Z,10.38
2024-02-19T19:27:06.287Z,10.43
2024-02-19T19:29:34.649Z,10.48
2024-02-19T19:32:05.904Z,10.45
2024-02-19T19:34:34.418Z,10.00
2024-02-19T19:37:02.889Z,10.85
2024-02-19T19:39:31.197Z,9.93
2024-02-19T19:41:59.559Z,10.40
2024-02-19T19:44:27.870Z,10.63
2024-02-19T19:46:57.557Z,10.27
2024-02-19T19:49:27.405Z,10.87
2024-02-19T19:51:56.881Z,9.82
2024-02-19T19:54:25.376Z,10.30
2024-02-19T19:56:53.773Z,9.85
2024-02-19T19:59:22.163Z,11.18
2024-02-19T20:01:51.093Z,9.95
2024-02-19T20:04:20.870Z,10.15
2024-02-19T20:06:50.978Z,10.33
2024-02-19T20:09:20.489Z,9.85
2024-02-19T20:11:48.896Z,10.10
2024-02-19T20:14:17.294Z,11.18
2024-02-19T20:16:45.692Z,10.32
2024-02-19T20:19:14.570Z,10.90
2024-02-19T20:21:42.929Z,10.50
2024-02-19T20:24:12.622Z,9.77
2024-02-19T20:26:41.948Z,10.07
2024-02-19T20:29:11.449Z,9.65
2024-02-19T20:31:39.853Z,10.35
2024-02-19T20:34:08.485Z,10.57
2024-02-19T20:36:38.852Z,10.60
2024-02-19T20:39:10.386Z,10.30
2024-02-19T20:41:43.885Z,9.68
2024-02-19T20:44:12.287Z,10.82
2024-02-19T20:46:40.898Z,10.38
2024-02-19T20:49:09.259Z,9.93
2024-02-19T20:51:37.654Z,10.23
2024-02-19T20:54:06.333Z,9.93
2024-02-19T20:56:34.765Z,9.60
2024-02-19T20:59:04.907Z,10.00
2024-02-19T21:01:35.057Z,9.88
2024-02-19T21:04:06.034Z,10.20
2024-02-19T21:06:34.523Z,9.63
2024-02-19T21:09:03.020Z,8.85
2024-02-19T21:11:32.579Z,9.07
2024-02-19T21:14:01.380Z,10.25
2024-02-19T21:16:31.216Z,10.50
2024-02-19T21:19:00.666Z,10.10
2024-02-19T21:21:34.551Z,9.68
2024-02-19T21:24:04.126Z,10.45
2024-02-19T21:26:32.789Z,9.65
2024-02-19T21:29:01.205Z,10.38
2024-02-19T21:31:31.249Z,9.50
2024-02-19T21:33:59.957Z,9.52
2024-02-19T21:36:28.499Z,9.60
2024-02-19T21:38:56.957Z,9.57
2024-02-19T21:41:25.513Z,10.73
2024-02-19T21:43:53.804Z,9.05
2024-02-19T21:46:22.210Z,9.05
2024-02-19T21:48:54.621Z,8.75
2024-02-19T21:51:23.319Z,10.23
2024-02-19T21:53:51.658Z,9.05
2024-02-19T21:56:20.543Z,9.55
2024-02-19T21:58:48.964Z,8.57
2024-02-19T22:01:17.521Z,9.60
2024-02-19T22:03:46.040Z,8.93
2024-02-19T22:06:15.805Z,9.25
2024-02-19T22:08:44.310Z,8.45
2024-02-19T22:11:14.500Z,9.13
2024-02-19T22:13:42.997Z,9.77
2024-02-19T22:16:11.435Z,10.70
2024-02-19T22:18:39.828Z,9.90
2024-02-19T22:21:08.137Z,9.30
2024-02-19T22:23:37.823Z,10.50
2024-02-19T22:26:06.423Z,9.70
2024-02-19T22:28:36.302Z,9.27
2024-02-19T22:31:07.076Z,9.77
2024-02-19T22:33:36.718Z,10.00
2024-02-19T22:36:05.877Z,9.27
2024-02-19T22:38:34.232Z,9.25
2024-02-19T22:41:04.030Z,9.90
2024-02-19T22:43:32.453Z,9.25
2024-02-19T22:46:00.857Z,9.23
2024-02-19T22:48:29.392Z,9.70
2024-02-19T22:50:57.903Z,9.23
2024-02-19T22:53:26.246Z,9.63
2024-02-19T22:55:54.829Z,9.38
2024-02-19T22:58:31.694Z,9.13
2024-02-19T23:01:03.388Z,9.43
2024-02-19T23:03:32.166Z,10.20
2024-02-19T23:06:00.552Z,8.82
2024-02-19T23:08:28.908Z,9.18
2024-02-19T23:10:57.348Z,9.75
2024-02-19T23:13:27.148Z,8.63
2024-02-19T23:15:55.490Z,9.98
2024-02-19T23:18:24.239Z,9.70
2024-02-19T23:20:52.742Z,8.20
2024-02-19T23:23:21.152Z,8.02
2024-02-19T23:25:53.883Z,9.38
2024-02-19T23:28:23.056Z,9.02
2024-02-19T23:30:53.485Z,9.77
2024-02-19T23:33:22.323Z,8.82
2024-02-19T23:35:50.921Z,9.20
2024-02-19T23:38:23.585Z,8.57
2024-02-19T23:40:52.317Z,8.73
2024-02-19T23:43:20.996Z,8.52
2024-02-19T23:45:49.751Z,8.90
2024-02-19T23:48:19.656Z,9.35
2024-02-19T23:50:48.491Z,9.02
2024-02-19T23:53:17.209Z,8.55
2024-02-19T23:55:45.680Z,9.70
2024-02-19T23:58:14.214Z,9.85
